createdAt,value
2019-03-12T00:01:13.603Z,2.20
2019-03-12T00:06:18.875Z,2.30
2019-03-12T00:11:24.236Z,2.30
2019-03-12T00:21:34.125Z,2.30
2019-03-12T00:26:39.479Z,2.40
2019-03-12T00:31:44.751Z,2.40
2019-03-12T00:36:50.050Z,2.40
2019-03-12T00:41:55.329Z,2.50
2019-03-12T00:47:00.611Z,2.60
2019-03-12T00:52:06.011Z,2.50
2019-03-12T00:57:11.306Z,2.50
2019-03-12T01:02:16.563Z,2.50
2019-03-12T01:07:21.856Z,2.60
2019-03-12T01:12:27.163Z,2.50
2019-03-12T01:17:32.489Z,2.60
2019-03-12T01:22:37.763Z,2.50
2019-03-12T01:27:43.067Z,2.50
2019-03-12T01:32:48.360Z,2.50
2019-03-12T01:37:53.783Z,2.60
2019-03-12T01:42:59.056Z,2.60
2019-03-12T01:48:04.359Z,2.60
2019-03-12T01:53:09.659Z,2.70
2019-03-12T01:58:15.048Z,2.70
2019-03-12T02:03:20.349Z,2.70
2019-03-12T02:08:25.629Z,2.80
2019-03-12T02:13:30.911Z,2.80
2019-03-12T02:18:36.255Z,2.80
2019-03-12T02:23:41.575Z,2.90
2019-03-12T02:28:46.831Z,2.90
2019-03-12T02:33:52.073Z,2.90
2019-03-12T02:38:57.359Z,3.00
2019-03-12T02:44:02.666Z,3.00
2019-03-12T02:49:09.731Z,3.00
2019-03-12T02:54:14.840Z,3.00
2019-03-12T02:59:20.160Z,3.00
2019-03-12T03:04:25.483Z,2.90
2019-03-12T03:09:30.738Z,2.90
2019-03-12T03:14:40.359Z,2.90
2019-03-12T03:19:45.664Z,2.80
2019-03-12T03:24:51.088Z,2.90
2019-03-12T03:29:56.354Z,2.90
2019-03-12T03:35:01.641Z,2.90
2019-03-12T03:40:08.064Z,2.90
2019-03-12T03:45:13.664Z,2.90
2019-03-12T03:50:18.956Z,2.90
2019-03-12T03:55:25.299Z,2.80
2019-03-12T04:00:30.572Z,4.60
2019-03-12T04:05:36.231Z,2.80
2019-03-12T04:10:41.661Z,2.80
2019-03-12T04:15:47.091Z,2.80
2019-03-12T04:20:52.479Z,2.80
2019-03-12T04:25:57.900Z,2.80
2019-03-12T04:31:03.159Z,2.80
2019-03-12T04:36:08.453Z,2.70
2019-03-12T04:41:13.775Z,2.70
2019-03-12T04:46:19.064Z,2.70
2019-03-12T04:51:24.331Z,2.70
2019-03-12T04:56:29.619Z,2.70
2019-03-12T05:01:34.883Z,2.70
2019-03-12T05:06:40.156Z,2.60
2019-03-12T05:11:46.515Z,2.60
2019-03-12T05:16:52.764Z,2.60
2019-03-12T05:21:58.067Z,2.60
2019-03-12T05:27:03.356Z,2.60
2019-03-12T05:32:09.708Z,2.60
2019-03-12T05:37:14.979Z,2.60
2019-03-12T05:42:20.275Z,2.70
2019-03-12T05:47:25.563Z,2.60
2019-03-12T05:52:30.855Z,2.60
2019-03-12T05:57:36.140Z,2.70
2019-03-12T06:02:41.431Z,2.70
2019-03-12T06:07:46.717Z,2.80
2019-03-12T06:12:52.005Z,2.70
2019-03-12T06:17:57.304Z,2.70
2019-03-12T06:23:02.616Z,2.70
2019-03-12T06:28:07.891Z,2.70
2019-03-12T06:33:18.368Z,2.70
2019-03-12T06:38:51.630Z,2.70
2019-03-12T06:44:06.348Z,2.70
2019-03-12T06:49:41.207Z,2.80
2019-03-12T06:55:08.450Z,2.80
2019-03-12T07:00:36.061Z,2.90
2019-03-12T07:05:50.964Z,2.90
2019-03-12T07:11:24.508Z,3.00
2019-03-12T07:16:58.204Z,3.10
2019-03-12T07:22:13.064Z,3.10
2019-03-12T07:27:37.304Z,3.10
2019-03-12T07:32:58.445Z,3.10
2019-03-12T07:38:31.990Z,3.20
2019-03-12T07:43:58.952Z,3.30
2019-03-12T07:49:12.043Z,3.30
2019-03-12T07:54:24.662Z,3.40
2019-03-12T07:59:48.849Z,3.40
2019-03-12T08:05:04.583Z,3.50
2019-03-12T08:10:23.483Z,3.60
2019-03-12T08:15:50.357Z,3.80
2019-03-12T08:21:21.759Z,3.90
2019-03-12T08:26:37.080Z,4.10
2019-03-12T08:32:00.092Z,4.00
2019-03-12T08:37:22.208Z,4.40
2019-03-12T08:42:55.087Z,4.60
2019-03-12T08:48:26.562Z,4.70
2019-03-12T08:53:40.543Z,4.60
2019-03-12T08:59:11.203Z,4.60
2019-03-12T09:04:48.084Z,4.50
2019-03-12T09:10:00.350Z,4.60
2019-03-12T09:15:27.497Z,4.70
2019-03-12T09:20:57.847Z,5.30
2019-03-12T09:26:12.493Z,5.80
2019-03-12T09:31:49.161Z,5.50
2019-03-12T09:37:04.138Z,5.40
2019-03-12T09:42:28.436Z,5.10
2019-03-12T09:47:51.671Z,5.50
2019-03-12T09:53:15.859Z,5.90
2019-03-12T09:58:46.204Z,5.80
2019-03-12T10:04:13.509Z,5.20
2019-03-12T10:09:38.465Z,5.70
2019-03-12T10:15:05.929Z,5.60
2019-03-12T10:20:57.729Z,5.40
2019-03-12T10:26:31.085Z,5.40
2019-03-12T10:31:54.322Z,5.60
2019-03-12T10:37:16.344Z,5.90
2019-03-12T10:42:33.719Z,6.30
2019-03-12T10:47:39.343Z,6.00
2019-03-12T10:52:44.881Z,6.30
2019-03-12T10:57:50.239Z,6.30
2019-03-12T11:02:55.536Z,7.30
2019-03-12T11:08:00.856Z,6.70
2019-03-12T11:13:07.491Z,6.30
2019-03-12T11:18:13.227Z,6.10
2019-03-12T11:23:19.579Z,7.20
2019-03-12T11:28:26.728Z,7.30
2019-03-12T11:33:33.037Z,7.60
2019-03-12T11:38:39.896Z,8.70
2019-03-12T11:43:45.773Z,9.20
2019-03-12T11:48:51.203Z,9.20
2019-03-12T11:53:56.735Z,7.90
2019-03-12T11:59:03.086Z,7.90
2019-03-12T12:04:08.883Z,8.00
2019-03-12T12:09:14.610Z,8.50
2019-03-12T12:14:20.690Z,8.80
2019-03-12T12:24:30.792Z,7.60
2019-03-12T12:29:36.070Z,7.50
2019-03-12T12:34:41.360Z,7.30
2019-03-12T12:39:47.566Z,7.70
2019-03-12T12:44:53.284Z,7.40
2019-03-12T12:49:59.163Z,8.30
2019-03-12T12:55:05.689Z,8.20
2019-03-12T13:00:17.404Z,8.60
2019-03-12T13:05:23.117Z,9.20
2019-03-12T13:10:30.063Z,11.10
2019-03-12T13:15:35.486Z,9.80
2019-03-12T13:20:41.768Z,10.60
2019-03-12T13:25:47.063Z,10.20
2019-03-12T13:30:53.330Z,10.30
2019-03-12T13:35:58.658Z,11.50
2019-03-12T13:41:05.996Z,12.20
2019-03-12T13:46:10.929Z,9.90
2019-03-12T13:51:16.435Z,9.60
2019-03-12T13:56:21.920Z,10.10
2019-03-12T14:01:30.330Z,10.10
2019-03-12T14:06:37.780Z,9.40
2019-03-12T14:11:46.916Z,9.90
2019-03-12T14:16:52.926Z,11.00
2019-03-12T14:21:59.366Z,10.30
2019-03-12T14:27:05.592Z,11.10
2019-03-12T14:32:12.212Z,10.70
2019-03-12T14:37:18.579Z,10.60
2019-03-12T14:42:25.349Z,10.80
2019-03-12T14:47:31.280Z,10.90
2019-03-12T14:52:40.791Z,11.50
2019-03-12T14:57:47.385Z,11.10
2019-03-12T15:02:54.381Z,11.00
2019-03-12T15:07:59.935Z,11.40
2019-03-12T15:13:05.773Z,10.90
2019-03-12T15:18:11.475Z,10.70
2019-03-12T15:23:18.245Z,11.20
2019-03-12T15:28:23.743Z,11.30
2019-03-12T15:33:29.047Z,10.70
2019-03-12T15:38:34.340Z,10.70
2019-03-12T15:43:39.663Z,10.80
2019-03-12T15:48:45.632Z,10.70
2019-03-12T15:53:51.816Z,10.10
2019-03-12T15:58:58.330Z,9.50
2019-03-12T16:04:04.156Z,9.50
2019-03-12T16:09:10.419Z,9.40
2019-03-12T16:14:17.080Z,9.10
2019-03-12T16:19:23.140Z,8.80
2019-03-12T16:24:28.973Z,8.80
2019-03-12T16:29:35.266Z,8.70
2019-03-12T16:34:42.200Z,8.40
2019-03-12T16:39:47.986Z,8.20
2019-03-12T16:44:54.903Z,8.10
2019-03-12T16:50:00.576Z,8.10
2019-03-12T16:55:06.504Z,8.00
2019-03-12T17:00:12.731Z,7.80
2019-03-12T17:05:19.376Z,7.70
2019-03-12T17:10:24.872Z,7.60
2019-03-12T17:15:30.802Z,7.50
2019-03-12T17:20:36.441Z,7.40
2019-03-12T17:25:42.847Z,7.40
2019-03-12T17:30:48.594Z,7.20
2019-03-12T17:35:54.646Z,7.00
2019-03-12T17:41:00.062Z,6.90
2019-03-12T17:46:07.267Z,6.70
2019-03-12T17:51:12.646Z,6.60
2019-03-12T17:56:18.025Z,6.50
2019-03-12T18:01:29.711Z,6.30
2019-03-12T18:06:30.390Z,6.20
2019-03-12T18:11:35.735Z,6.10
2019-03-12T18:16:41.645Z,6.10
2019-03-12T18:21:47.090Z,6.00
2019-03-12T18:26:52.469Z,6.00
2019-03-12T18:31:57.858Z,5.90
2019-03-12T18:37:03.445Z,5.90
2019-03-12T18:42:08.808Z,5.80
2019-03-12T18:47:14.144Z,5.70
2019-03-12T18:52:19.471Z,5.70
2019-03-12T18:57:24.891Z,5.60
2019-03-12T19:02:30.167Z,5.50
2019-03-12T19:07:35.551Z,5.40
2019-03-12T19:12:40.913Z,5.40
2019-03-12T19:17:46.219Z,5.30
2019-03-12T19:22:51.635Z,5.10
2019-03-12T19:28:00.271Z,5.10
2019-03-12T19:33:06.647Z,5.00
2019-03-12T19:38:11.915Z,4.90
2019-03-12T19:43:17.303Z,4.90
2019-03-12T19:48:22.591Z,4.80
2019-03-12T19:53:27.862Z,4.80
2019-03-12T19:58:33.197Z,4.80
2019-03-12T20:03:38.512Z,4.90
2019-03-12T20:08:43.895Z,4.90
2019-03-12T20:14:35.120Z,4.90
2019-03-12T20:20:07.699Z,4.90
2019-03-12T20:25:56.427Z,4.80
2019-03-12T20:31:37.620Z,4.80
2019-03-12T20:37:19.527Z,4.80
2019-03-12T20:43:16.715Z,4.70
2019-03-12T20:49:17.930Z,4.60
2019-03-12T20:55:09.963Z,4.50
2019-03-12T21:00:45.455Z,4.40
2019-03-12T21:06:27.383Z,4.40
2019-03-12T21:12:18.834Z,4.30
2019-03-12T21:18:13.061Z,4.20
2019-03-12T21:23:44.617Z,4.10
2019-03-12T21:29:22.040Z,4.00
2019-03-12T21:34:27.289Z,3.80
2019-03-12T21:39:32.625Z,3.80
2019-03-12T21:44:38.043Z,3.50
2019-03-12T21:49:43.320Z,3.40
2019-03-12T21:54:48.879Z,3.40
2019-03-12T21:59:54.622Z,3.30
2019-03-12T22:04:59.855Z,3.20
2019-03-12T22:10:06.735Z,3.10
2019-03-12T22:15:12.139Z,3.10
2019-03-12T22:20:17.848Z,3.30
2019-03-12T22:25:23.208Z,3.30
2019-03-12T22:30:28.883Z,3.30
2019-03-12T22:35:34.795Z,3.20
2019-03-12T22:40:40.652Z,3.30
2019-03-12T22:45:46.165Z,3.30
2019-03-12T22:50:51.447Z,3.30
2019-03-12T22:55:56.903Z,3.30
2019-03-12T23:01:03.118Z,3.30
2019-03-12T23:06:28.912Z,3.30
2019-03-12T23:11:53.222Z,3.20
2019-03-12T23:17:00.138Z,3.30
2019-03-12T23:22:06.050Z,3.30
2019-03-12T23:27:12.071Z,3.30
2019-03-12T23:32:19.163Z,3.30
2019-03-12T23:37:24.516Z,3.30
2019-03-12T23:42:29.789Z,3.30
2019-03-12T23:47:35.159Z,3.30
2019-03-12T23:52:40.446Z,3.30
2019-03-12T23:57:45.734Z,3.20
